sensor_id;sensor_type;location;lat;lon;timestamp;pressure;altitude;pressure_sealevel;temperature;humidity
6565;BME280;3316;44.118;27.258;2023-05-20T00:01:28;101303.81;;;17.49;100.00
6565;BME280;3316;44.118;27.258;2023-05-20T00:03:54;101297.53;;;17.51;100.00
6565;BME280;3316;44.118;27.258;2023-05-20T00:06:19;101300.94;;;17.56;100.00
6565;BME280;3316;44.118;27.258;2023-05-20T00:08:45;101304.41;;;17.58;100.00
6565;BME280;3316;44.118;27.258;2023-05-20T00:11:10;101313.06;;;17.66;100.00
6565;BME280;3316;44.118;27.258;2023-05-20T00:13:36;101289.50;;;17.53;100.00
6565;BME280;3316;44.118;27.258;2023-05-20T00:16:01;101294.19;;;17.43;100.00
6565;BME280;3316;44.118;27.258;2023-05-20T00:18:27;101307.25;;;17.52;100.00
6565;BME280;3316;44.118;27.258;2023-05-20T00:20:52;101291.44;;;17.46;100.00
6565;BME280;3316;44.118;27.258;2023-05-20T00:23:18;101304.69;;;17.48;100.00
6565;BME280;3316;44.118;27.258;2023-05-20T00:25:44;101308.13;;;17.53;100.00
6565;BME280;3316;44.118;27.258;2023-05-20T00:28:09;101305.38;;;17.56;100.00
6565;BME280;3316;44.118;27.258;2023-05-20T00:30:35;101300.34;;;17.44;100.00
6565;BME280;3316;44.118;27.258;2023-05-20T00:33:00;101318.84;;;17.51;100.00
6565;BME280;3316;44.118;27.258;2023-05-20T00:35:25;101312.94;;;17.39;100.00
6565;BME280;3316;44.118;27.258;2023-05-20T00:37:51;101287.75;;;17.20;100.00
6565;BME280;3316;44.118;27.258;2023-05-20T00:40:16;101307.31;;;17.17;100.00
6565;BME280;3316;44.118;27.258;2023-05-20T00:42:42;101281.03;;;17.05;100.00
6565;BME280;3316;44.118;27.258;2023-05-20T00:45:08;101280.28;;;17.00;100.00
6565;BME280;3316;44.118;27.258;2023-05-20T00:47:34;101316.03;;;17.22;100.00
6565;BME280;3316;44.118;27.258;2023-05-20T00:50:01;101307.31;;;17.17;100.00
6565;BME280;3316;44.118;27.258;2023-05-20T00:52:31;101314.91;;;17.31;100.00
6565;BME280;3316;44.118;27.258;2023-05-20T00:54:57;101310.44;;;17.33;100.00
6565;BME280;3316;44.118;27.258;2023-05-20T00:57:23;101305.88;;;17.38;100.00
6565;BME280;3316;44.118;27.258;2023-05-20T00:59:49;101290.31;;;17.23;100.00
6565;BME280;3316;44.118;27.258;2023-05-20T01:02:14;101308.72;;;17.30;100.00
6565;BME280;3316;44.118;27.258;2023-05-20T01:04:40;101285.25;;;17.14;100.00
6565;BME280;3316;44.118;27.258;2023-05-20T01:07:12;101303.81;;;17.15;100.00
6565;BME280;3316;44.118;27.258;2023-05-20T01:09:39;101297.47;;;17.21;100.00
6565;BME280;3316;44.118;27.258;2023-05-20T01:12:14;101287.75;;;17.20;100.00
6565;BME280;3316;44.118;27.258;2023-05-20T01:14:56;101294.13;;;17.13;100.00
6565;BME280;3316;44.118;27.258;2023-05-20T01:17:26;101302.34;;;17.04;100.00
6565;BME280;3316;44.118;27.258;2023-05-20T01:19:53;101288.22;;;17.02;100.00
6565;BME280;3316;44.118;27.258;2023-05-20T01:22:26;101282.22;;;16.93;100.00
6565;BME280;3316;44.118;27.258;2023-05-20T01:24:52;101285.03;;;16.89;100.00
6565;BME280;3316;44.118;27.258;2023-05-20T01:27:18;101276.22;;;16.87;100.00
6565;BME280;3316;44.118;27.258;2023-05-20T01:29:45;101285.03;;;16.87;100.00
6565;BME280;3316;44.118;27.258;2023-05-20T01:32:20;101284.31;;;16.82;100.00
6565;BME280;3316;44.118;27.258;2023-05-20T01:34:49;101292.13;;;16.88;100.00
6565;BME280;3316;44.118;27.258;2023-05-20T01:37:17;101278.00;;;16.86;100.00
6565;BME280;3316;44.118;27.258;2023-05-20T01:39:43;101289.47;;;16.88;100.00
6565;BME280;3316;44.118;27.258;2023-05-20T01:42:09;101280.72;;;16.85;100.00
6565;BME280;3316;44.118;27.258;2023-05-20T01:44:36;101279.81;;;16.84;100.00
6565;BME280;3316;44.118;27.258;2023-05-20T01:47:01;101279.81;;;16.84;100.00
6565;BME280;3316;44.118;27.258;2023-05-20T01:49:27;101280.63;;;16.88;100.00
6565;BME280;3316;44.118;27.258;2023-05-20T01:51:53;101283.91;;;16.98;100.00
6565;BME280;3316;44.118;27.258;2023-05-20T01:54:18;101269.88;;;16.91;100.00
6565;BME280;3316;44.118;27.258;2023-05-20T01:56:45;101278.53;;;16.99;100.00
6565;BME280;3316;44.118;27.258;2023-05-20T01:59:11;101280.25;;;17.02;100.00
6565;BME280;3316;44.118;27.258;2023-05-20T02:01:37;101277.00;;;16.90;100.00
6565;BME280;3316;44.118;27.258;2023-05-20T02:04:02;101286.72;;;16.91;100.00
6565;BME280;3316;44.118;27.258;2023-05-20T02:06:28;101270.03;;;16.86;100.00
6565;BME280;3316;44.118;27.258;2023-05-20T02:08:53;101286.34;;;17.05;100.00
6565;BME280;3316;44.118;27.258;2023-05-20T02:11:19;101287.13;;;17.09;100.00
6565;BME280;3316;44.118;27.258;2023-05-20T02:13:45;101275.75;;;17.04;100.00
6565;BME280;3316;44.118;27.258;2023-05-20T02:16:10;101287.13;;;17.10;100.00
6565;BME280;3316;44.118;27.258;2023-05-20T02:18:36;101292.22;;;17.18;100.00
6565;BME280;3316;44.118;27.258;2023-05-20T02:21:02;101284.31;;;17.16;100.00
6565;BME280;3316;44.118;27.258;2023-05-20T02:23:30;101282.53;;;17.15;100.00
6565;BME280;3316;44.118;27.258;2023-05-20T02:25:56;101281.44;;;17.22;100.00
6565;BME280;3316;44.118;27.258;2023-05-20T02:28:21;101272.03;;;17.11;100.00
6565;BME280;3316;44.118;27.258;2023-05-20T02:30:47;101258.78;;;17.09;100.00
6565;BME280;3316;44.118;27.258;2023-05-20T02:33:15;101289.25;;;17.28;100.00
6565;BME280;3316;44.118;27.258;2023-05-20T02:35:40;101258.81;;;17.08;100.00
6565;BME280;3316;44.118;27.258;2023-05-20T02:38:06;101286.97;;;17.16;100.00
6565;BME280;3316;44.118;27.258;2023-05-20T02:40:31;101232.03;;;16.81;100.00
6565;BME280;3316;44.118;27.258;2023-05-20T02:42:57;101279.22;;;17.07;100.00
6565;BME280;3316;44.118;27.258;2023-05-20T02:45:22;101304.69;;;17.16;100.00
6565;BME280;3316;44.118;27.258;2023-05-20T02:47:48;101302.94;;;17.15;100.00
6565;BME280;3316;44.118;27.258;2023-05-20T02:50:16;101294.50;;;16.99;100.00
6565;BME280;3316;44.118;27.258;2023-05-20T02:52:41;101309.22;;;17.12;100.00
6565;BME280;3316;44.118;27.258;2023-05-20T02:55:08;101288.03;;;17.09;100.00
6565;BME280;3316;44.118;27.258;2023-05-20T02:57:34;101302.94;;;17.15;100.00
6565;BME280;3316;44.118;27.258;2023-05-20T03:00:03;101310.81;;;17.19;100.00
6565;BME280;3316;44.118;27.258;2023-05-20T03:02:35;101289.84;;;17.07;100.00
6565;BME280;3316;44.118;27.258;2023-05-20T03:05:01;101302.09;;;17.14;100.00
6565;BME280;3316;44.118;27.258;2023-05-20T03:07:26;101320.69;;;17.14;100.00
6565;BME280;3316;44.118;27.258;2023-05-20T03:09:52;101313.88;;;17.04;100.00
6565;BME280;3316;44.118;27.258;2023-05-20T03:12:17;101293.81;;;16.91;100.00
6565;BME280;3316;44.118;27.258;2023-05-20T03:14:44;101312.78;;;17.11;100.00
6565;BME280;3316;44.118;27.258;2023-05-20T03:17:09;101344.44;;;17.22;100.00
6565;BME280;3316;44.118;27.258;2023-05-20T03:19:35;101296.59;;;16.86;100.00
6565;BME280;3316;44.118;27.258;2023-05-20T03:22:01;101336.59;;;17.16;100.00
6565;BME280;3316;44.118;27.258;2023-05-20T03:24:27;101345.63;;;17.09;100.00
6565;BME280;3316;44.118;27.258;2023-05-20T03:26:53;101350.13;;;17.07;100.00
6565;BME280;3316;44.118;27.258;2023-05-20T03:29:21;101359.75;;;17.12;100.00
6565;BME280;3316;44.118;27.258;2023-05-20T03:31:46;101357.88;;;17.16;100.00
6565;BME280;3316;44.118;27.258;2023-05-20T03:34:11;101358.09;;;17.07;100.00
6565;BME280;3316;44.118;27.258;2023-05-20T03:36:37;101359.75;;;17.12;100.00
6565;BME280;3316;44.118;27.258;2023-05-20T03:39:03;101345.72;;;17.06;100.00
6565;BME280;3316;44.118;27.258;2023-05-20T03:41:28;101356.28;;;17.09;100.00
6565;BME280;3316;44.118;27.258;2023-05-20T03:43:54;101347.75;;;16.96;100.00
6565;BME280;3316;44.118;27.258;2023-05-20T03:46:19;101359.78;;;17.11;100.00
6565;BME280;3316;44.118;27.258;2023-05-20T03:48:45;101363.19;;;17.16;100.00
6565;BME280;3316;44.118;27.258;2023-05-20T03:51:10;101335.69;;;17.17;100.00
6565;BME280;3316;44.118;27.258;2023-05-20T03:53:36;101339.84;;;17.27;100.00
6565;BME280;3316;44.118;27.258;2023-05-20T03:56:01;101337.13;;;17.30;100.00
6565;BME280;3316;44.118;27.258;2023-05-20T03:58:27;101342.91;;;17.44;100.00
6565;BME280;3316;44.118;27.258;2023-05-20T04:00:56;101344.13;;;17.32;100.00
6565;BME280;3316;44.118;27.258;2023-05-20T04:03:21;101352.84;;;17.39;100.00
6565;BME280;3316;44.118;27.258;2023-05-20T04:05:47;101365.47;;;17.31;100.00
6565;BME280;3316;44.118;27.258;2023-05-20T04:08:13;101369.25;;;17.21;100.00
6565;BME280;3316;44.118;27.258;2023-05-20T04:10:41;101376.50;;;17.16;100.00
6565;BME280;3316;44.118;27.258;2023-05-20T04:13:07;101372.06;;;17.16;100.00
6565;BME280;3316;44.118;27.258;2023-05-20T04:15:37;101377.72;;;17.36;100.00
6565;BME280;3316;44.118;27.258;2023-05-20T04:18:03;101366.50;;;17.59;100.00
6565;BME280;3316;44.118;27.258;2023-05-20T04:20:32;101333.69;;;17.58;100.00
6565;BME280;3316;44.118;27.258;2023-05-20T04:22:58;101351.09;;;17.70;100.00
6565;BME280;3316;44.118;27.258;2023-05-20T04:25:23;101375.56;;;17.84;100.00
6565;BME280;3316;44.118;27.258;2023-05-20T04:27:50;101366.75;;;17.82;100.00
6565;BME280;3316;44.118;27.258;2023-05-20T04:30:18;101373.91;;;17.80;100.00
6565;BME280;3316;44.118;27.258;2023-05-20T04:32:45;101390.31;;;17.65;100.00
6565;BME280;3316;44.118;27.258;2023-05-20T04:35:12;101377.88;;;17.64;100.00
6565;BME280;3316;44.118;27.258;2023-05-20T04:37:38;101378.81;;;17.63;100.00
6565;BME280;3316;44.118;27.258;2023-05-20T04:40:04;101384.97;;;17.65;100.00
6565;BME280;3316;44.118;27.258;2023-05-20T04:42:31;101369.00;;;17.65;100.00
6565;BME280;3316;44.118;27.258;2023-05-20T04:44:58;101368.00;;;17.69;100.00
6565;BME280;3316;44.118;27.258;2023-05-20T04:47:26;101349.31;;;17.70;100.00
6565;BME280;3316;44.118;27.258;2023-05-20T04:49:53;101351.50;;;17.87;100.00
6565;BME280;3316;44.118;27.258;2023-05-20T04:52:24;101343.28;;;17.64;100.00
6565;BME280;3316;44.118;27.258;2023-05-20T04:54:53;101359.09;;;17.70;100.00
6565;BME280;3316;44.118;27.258;2023-05-20T04:57:22;101354.44;;;17.78;100.00
6565;BME280;3316;44.118;27.258;2023-05-20T04:59:47;101363.47;;;17.71;100.00
6565;BME280;3316;44.118;27.258;2023-05-20T05:02:13;101345.00;;;17.66;100.00
6565;BME280;3316;44.118;27.258;2023-05-20T05:04:39;101331.38;;;17.45;100.00
6565;BME280;3316;44.118;27.258;2023-05-20T05:07:04;101323.72;;;17.33;100.00
6565;BME280;3316;44.118;27.258;2023-05-20T05:09:30;101320.41;;;17.25;100.00
6565;BME280;3316;44.118;27.258;2023-05-20T05:11:55;101321.00;;;17.36;100.00
6565;BME280;3316;44.118;27.258;2023-05-20T05:14:21;101310.16;;;17.42;100.00
6565;BME280;3316;44.118;27.258;2023-05-20T05:16:48;101278.09;;;17.16;100.00
6565;BME280;3316;44.118;27.258;2023-05-20T05:19:13;101306.03;;;17.32;100.00
6565;BME280;3316;44.118;27.258;2023-05-20T05:21:39;101311.34;;;17.32;100.00
6565;BME280;3316;44.118;27.258;2023-05-20T05:24:05;101304.75;;;17.13;100.00
6565;BME280;3316;44.118;27.258;2023-05-20T05:26:30;101305.81;;;17.07;100.00
6565;BME280;3316;44.118;27.258;2023-05-20T05:28:55;101300.56;;;17.04;100.00
6565;BME280;3316;44.118;27.258;2023-05-20T05:31:21;101303.03;;;17.12;100.00
6565;BME280;3316;44.118;27.258;2023-05-20T05:33:46;101300.41;;;17.10;100.00
6565;BME280;3316;44.118;27.258;2023-05-20T05:36:12;101289.06;;;17.04;100.00
6565;BME280;3316;44.118;27.258;2023-05-20T05:38:37;101274.19;;;16.97;100.00
6565;BME280;3316;44.118;27.258;2023-05-20T05:41:03;101268.91;;;16.95;100.00
6565;BME280;3316;44.118;27.258;2023-05-20T05:43:28;101273.28;;;16.98;100.00
6565;BME280;3316;44.118;27.258;2023-05-20T05:45:53;101261.97;;;16.89;100.00
6565;BME280;3316;44.118;27.258;2023-05-20T05:48:20;101260.91;;;16.97;100.00
6565;BME280;3316;44.118;27.258;2023-05-20T05:50:46;101250.78;;;17.09;100.00
6565;BME280;3316;44.118;27.258;2023-05-20T05:53:12;101245.31;;;17.15;100.00
6565;BME280;3316;44.118;27.258;2023-05-20T05:55:37;101258.50;;;17.20;100.00
6565;BME280;3316;44.118;27.258;2023-05-20T05:58:03;101264.03;;;17.43;100.00
6565;BME280;3316;44.118;27.258;2023-05-20T06:00:28;101266.88;;;17.37;100.00
6565;BME280;3316;44.118;27.258;2023-05-20T06:02:54;101263.50;;;17.30;100.00
6565;BME280;3316;44.118;27.258;2023-05-20T06:05:20;101277.69;;;17.31;100.00
6565;BME280;3316;44.118;27.258;2023-05-20T06:07:45;101282.03;;;17.33;100.00
6565;BME280;3316;44.118;27.258;2023-05-20T06:10:11;101284.66;;;17.35;100.00
6565;BME280;3316;44.118;27.258;2023-05-20T06:12:36;101318.09;;;17.45;100.00
6565;BME280;3316;44.118;27.258;2023-05-20T06:15:02;101340.47;;;17.38;100.00
6565;BME280;3316;44.118;27.258;2023-05-20T06:17:27;101348.06;;;17.53;100.00
6565;BME280;3316;44.118;27.258;2023-05-20T06:19:53;101381.78;;;17.83;100.00
6565;BME280;3316;44.118;27.258;2023-05-20T06:22:18;101381.56;;;18.21;100.00
6565;BME280;3316;44.118;27.258;2023-05-20T06:24:44;101378.16;;;18.45;100.00
6565;BME280;3316;44.118;27.258;2023-05-20T06:27:09;101367.00;;;18.62;100.00
6565;BME280;3316;44.118;27.258;2023-05-20T06:29:35;101360.59;;;18.95;100.00
6565;BME280;3316;44.118;27.258;2023-05-20T06:32:00;101335.31;;;19.31;100.00
6565;BME280;3316;44.118;27.258;2023-05-20T06:34:25;101324.50;;;19.61;100.00
6565;BME280;3316;44.118;27.258;2023-05-20T06:36:52;101366.47;;;20.05;100.00
6565;BME280;3316;44.118;27.258;2023-05-20T06:39:17;101367.00;;;20.14;100.00
6565;BME280;3316;44.118;27.258;2023-05-20T06:41:43;101371.53;;;20.35;100.00
6565;BME280;3316;44.118;27.258;2023-05-20T06:44:08;101354.88;;;20.51;100.00
6565;BME280;3316;44.118;27.258;2023-05-20T06:46:34;101358.81;;;20.64;100.00
6565;BME280;3316;44.118;27.258;2023-05-20T06:49:00;101358.88;;;20.84;100.00
6565;BME280;3316;44.118;27.258;2023-05-20T06:51:26;101356.84;;;21.12;100.00
6565;BME280;3316;44.118;27.258;2023-05-20T06:53:52;101335.03;;;21.21;100.00
6565;BME280;3316;44.118;27.258;2023-05-20T06:56:18;101373.72;;;21.74;100.00
6565;BME280;3316;44.118;27.258;2023-05-20T06:58:43;101372.81;;;22.14;100.00
6565;BME280;3316;44.118;27.258;2023-05-20T07:01:09;101337.44;;;22.06;100.00
6565;BME280;3316;44.118;27.258;2023-05-20T07:03:35;101376.88;;;22.41;100.00
6565;BME280;3316;44.118;27.258;2023-05-20T07:06:00;101367.91;;;22.42;100.00
6565;BME280;3316;44.118;27.258;2023-05-20T07:08:26;101363.84;;;22.34;100.00
6565;BME280;3316;44.118;27.258;2023-05-20T07:10:54;101325.44;;;22.14;100.00
6565;BME280;3316;44.118;27.258;2023-05-20T07:13:20;101363.44;;;22.43;100.00
6565;BME280;3316;44.118;27.258;2023-05-20T07:15:48;101358.34;;;22.37;100.00
6565;BME280;3316;44.118;27.258;2023-05-20T07:18:14;101362.84;;;22.18;100.00
6565;BME280;3316;44.118;27.258;2023-05-20T07:20:39;101364.56;;;22.19;100.00
6565;BME280;3316;44.118;27.258;2023-05-20T07:23:04;101347.41;;;22.04;100.00
6565;BME280;3316;44.118;27.258;2023-05-20T07:25:30;101341.44;;;21.97;100.00
6565;BME280;3316;44.118;27.258;2023-05-20T07:27:55;101352.69;;;22.05;100.00
6565;BME280;3316;44.118;27.258;2023-05-20T07:30:21;101345.28;;;22.10;100.00
6565;BME280;3316;44.118;27.258;2023-05-20T07:32:46;101367.31;;;22.36;100.00
6565;BME280;3316;44.118;27.258;2023-05-20T07:35:12;101352.09;;;22.55;100.00
6565;BME280;3316;44.118;27.258;2023-05-20T07:37:37;101364.84;;;22.50;100.00
6565;BME280;3316;44.118;27.258;2023-05-20T07:40:03;101359.16;;;22.76;100.00
6565;BME280;3316;44.118;27.258;2023-05-20T07:42:29;101362.50;;;22.98;100.00
6565;BME280;3316;44.118;27.258;2023-05-20T07:44:55;101328.31;;;23.01;100.00
6565;BME280;3316;44.118;27.258;2023-05-20T07:47:20;101366.31;;;23.28;100.00
6565;BME280;3316;44.118;27.258;2023-05-20T07:49:46;101355.06;;;23.56;100.00
6565;BME280;3316;44.118;27.258;2023-05-20T07:52:11;101363.69;;;23.78;100.00
6565;BME280;3316;44.118;27.258;2023-05-20T07:54:36;101366.00;;;24.03;100.00
6565;BME280;3316;44.118;27.258;2023-05-20T07:57:02;101366.97;;;24.33;100.00
6565;BME280;3316;44.118;27.258;2023-05-20T07:59:27;101357.81;;;24.84;100.00
6565;BME280;3316;44.118;27.258;2023-05-20T08:01:53;101372.56;;;24.61;95.35
6565;BME280;3316;44.118;27.258;2023-05-20T08:04:18;101358.78;;;24.83;93.61
6565;BME280;3316;44.118;27.258;2023-05-20T08:06:44;101363.44;;;24.95;92.41
6565;BME280;3316;44.118;27.258;2023-05-20T08:09:09;101349.59;;;24.87;89.22
6565;BME280;3316;44.118;27.258;2023-05-20T08:11:35;101356.88;;;24.85;90.08
6565;BME280;3316;44.118;27.258;2023-05-20T08:14:01;101342.78;;;24.64;90.41
6565;BME280;3316;44.118;27.258;2023-05-20T08:16:27;101339.22;;;24.48;89.80
6565;BME280;3316;44.118;27.258;2023-05-20T08:18:52;101325.94;;;24.29;90.65
6565;BME280;3316;44.118;27.258;2023-05-20T08:21:18;101351.75;;;24.80;89.82
6565;BME280;3316;44.118;27.258;2023-05-20T08:23:43;101345.38;;;25.26;84.60
6565;BME280;3316;44.118;27.258;2023-05-20T08:26:08;101352.84;;;25.67;81.45
6565;BME280;3316;44.118;27.258;2023-05-20T08:28:35;101340.88;;;26.41;76.74
6565;BME280;3316;44.118;27.258;2023-05-20T08:31:02;101350.72;;;26.42;74.88
6565;BME280;3316;44.118;27.258;2023-05-20T08:33:27;101351.88;;;26.52;74.07
6565;BME280;3316;44.118;27.258;2023-05-20T08:35:53;101339.72;;;26.45;71.54
6565;BME280;3316;44.118;27.258;2023-05-20T08:38:18;101342.22;;;26.62;67.51
6565;BME280;3316;44.118;27.258;2023-05-20T08:40:44;101335.41;;;26.42;65.55
6565;BME280;3316;44.118;27.258;2023-05-20T08:43:10;101343.13;;;26.34;66.55
6565;BME280;3316;44.118;27.258;2023-05-20T08:45:37;101345.88;;;26.61;66.35
6565;BME280;3316;44.118;27.258;2023-05-20T08:48:03;101348.81;;;27.38;65.23
6565;BME280;3316;44.118;27.258;2023-05-20T08:50:32;101335.22;;;27.25;63.85
6565;BME280;3316;44.118;27.258;2023-05-20T08:52:58;101326.41;;;27.49;63.73
6565;BME280;3316;44.118;27.258;2023-05-20T08:55:26;101326.66;;;27.83;62.22
6565;BME280;3316;44.118;27.258;2023-05-20T08:57:54;101312.19;;;27.97;61.22
6565;BME280;3316;44.118;27.258;2023-05-20T09:00:21;101327.56;;;27.96;58.49
6565;BME280;3316;44.118;27.258;2023-05-20T09:02:51;101329.38;;;27.83;58.69
6565;BME280;3316;44.118;27.258;2023-05-20T09:05:17;101331.06;;;27.47;58.60
6565;BME280;3316;44.118;27.258;2023-05-20T09:07:43;101332.94;;;27.19;61.04
6565;BME280;3316;44.118;27.258;2023-05-20T09:10:09;101318.78;;;27.68;60.85
6565;BME280;3316;44.118;27.258;2023-05-20T09:12:35;101298.75;;;27.58;57.56
6565;BME280;3316;44.118;27.258;2023-05-20T09:15:01;101317.81;;;27.81;57.14
6565;BME280;3316;44.118;27.258;2023-05-20T09:17:27;101335.41;;;27.74;56.51
6565;BME280;3316;44.118;27.258;2023-05-20T09:19:52;101320.91;;;27.63;55.93
6565;BME280;3316;44.118;27.258;2023-05-20T09:22:26;101327.06;;;27.90;55.76
6565;BME280;3316;44.118;27.258;2023-05-20T09:24:52;101312.25;;;27.45;57.04
6565;BME280;3316;44.118;27.258;2023-05-20T09:27:19;101327.69;;;27.30;54.96
6565;BME280;3316;44.118;27.258;2023-05-20T09:29:49;101313.78;;;27.10;54.58
6565;BME280;3316;44.118;27.258;2023-05-20T09:32:17;101313.75;;;26.97;55.57
6565;BME280;3316;44.118;27.258;2023-05-20T09:34:46;101324.16;;;27.03;56.16
6565;BME280;3316;44.118;27.258;2023-05-20T09:37:13;101302.09;;;26.97;54.16
6565;BME280;3316;44.118;27.258;2023-05-20T09:40:04;101310.78;;;27.14;53.54
6565;BME280;3316;44.118;27.258;2023-05-20T09:42:41;101262.41;;;26.85;54.80
6565;BME280;3316;44.118;27.258;2023-05-20T09:45:07;101299.84;;;27.03;55.94
6565;BME280;3316;44.118;27.258;2023-05-20T09:47:38;101301.44;;;26.93;56.32
6565;BME280;3316;44.118;27.258;2023-05-20T09:50:08;101279.50;;;26.98;52.91
6565;BME280;3316;44.118;27.258;2023-05-20T09:52:36;101292.03;;;27.38;51.37
6565;BME280;3316;44.118;27.258;2023-05-20T09:55:04;101270.81;;;27.70;50.63
6565;BME280;3316;44.118;27.258;2023-05-20T09:57:32;101285.00;;;27.36;52.79
6565;BME280;3316;44.118;27.258;2023-05-20T09:59:58;101276.41;;;27.16;53.06
6565;BME280;3316;44.118;27.258;2023-05-20T10:02:23;101278.34;;;27.27;54.06
6565;BME280;3316;44.118;27.258;2023-05-20T10:04:50;101275.13;;;27.22;53.18
6565;BME280;3316;44.118;27.258;2023-05-20T10:07:24;101283.47;;;27.19;51.64
6565;BME280;3316;44.118;27.258;2023-05-20T10:10:13;101277.78;;;27.09;51.59
6565;BME280;3316;44.118;27.258;2023-05-20T10:21:20;101268.03;;;27.59;46.82
6565;BME280;3316;44.118;27.258;2023-05-20T10:23:49;101249.34;;;27.56;46.33
6565;BME280;3316;44.118;27.258;2023-05-20T10:26:15;101255.03;;;27.76;47.25
6565;BME280;3316;44.118;27.258;2023-05-20T10:28:42;101268.03;;;27.96;47.49
6565;BME280;3316;44.118;27.258;2023-05-20T10:31:21;101254.69;;;27.93;45.95
6565;BME280;3316;44.118;27.258;2023-05-20T10:33:47;101236.44;;;27.72;46.79
6565;BME280;3316;44.118;27.258;2023-05-20T10:36:25;101245.59;;;28.43;46.63
6565;BME280;3316;44.118;27.258;2023-05-20T10:38:55;101245.34;;;27.61;45.73
6565;BME280;3316;44.118;27.258;2023-05-20T10:41:26;101243.16;;;27.79;44.68
6565;BME280;3316;44.118;27.258;2023-05-20T10:44:05;101234.19;;;27.66;44.06
6565;BME280;3316;44.118;27.258;2023-05-20T10:46:31;101234.19;;;27.66;43.82
6565;BME280;3316;44.118;27.258;2023-05-20T10:48:57;101230.25;;;27.82;43.66
6565;BME280;3316;44.118;27.258;2023-05-20T10:51:24;101224.25;;;28.15;43.88
6565;BME280;3316;44.118;27.258;2023-05-20T10:53:53;101235.00;;;28.64;43.40
6565;BME280;3316;44.118;27.258;2023-05-20T10:56:24;101222.69;;;28.60;43.81
6565;BME280;3316;44.118;27.258;2023-05-20T10:58:51;101218.25;;;28.59;43.07
6565;BME280;3316;44.118;27.258;2023-05-20T11:01:18;101203.84;;;27.86;43.45
6565;BME280;3316;44.118;27.258;2023-05-20T11:03:44;101215.78;;;27.71;44.00
6565;BME280;3316;44.118;27.258;2023-05-20T11:06:14;101218.47;;;27.96;44.53
6565;BME280;3316;44.118;27.258;2023-05-20T11:08:40;101205.72;;;27.73;44.92
6565;BME280;3316;44.118;27.258;2023-05-20T11:11:06;101219.16;;;27.62;46.14
6565;BME280;3316;44.118;27.258;2023-05-20T11:13:32;101226.47;;;27.09;47.57
6565;BME280;3316;44.118;27.258;2023-05-20T11:15:57;101205.47;;;26.49;49.07
6565;BME280;3316;44.118;27.258;2023-05-20T11:18:26;101224.97;;;25.85;52.42
6565;BME280;3316;44.118;27.258;2023-05-20T11:20:55;101227.03;;;25.53;54.73
6565;BME280;3316;44.118;27.258;2023-05-20T11:23:20;101224.38;;;25.23;52.20
6565;BME280;3316;44.118;27.258;2023-05-20T11:25:49;101217.94;;;25.26;49.81
6565;BME280;3316;44.118;27.258;2023-05-20T11:28:15;101246.38;;;25.16;48.87
6565;BME280;3316;44.118;27.258;2023-05-20T11:30:41;101257.19;;;24.86;52.50
6565;BME280;3316;44.118;27.258;2023-05-20T11:33:11;101251.50;;;24.30;56.98
6565;BME280;3316;44.118;27.258;2023-05-20T11:35:52;101266.03;;;23.95;64.64
6565;BME280;3316;44.118;27.258;2023-05-20T11:38:19;101265.66;;;23.52;83.54
6565;BME280;3316;44.118;27.258;2023-05-20T11:40:54;101261.91;;;22.88;94.29
6565;BME280;3316;44.118;27.258;2023-05-20T11:43:21;101262.91;;;22.14;100.00
6565;BME280;3316;44.118;27.258;2023-05-20T11:45:55;101269.47;;;21.70;100.00
6565;BME280;3316;44.118;27.258;2023-05-20T11:48:22;101249.72;;;21.72;100.00
6565;BME280;3316;44.118;27.258;2023-05-20T11:50:48;101257.78;;;21.91;100.00
6565;BME280;3316;44.118;27.258;2023-05-20T11:53:17;101227.13;;;21.96;100.00
6565;BME280;3316;44.118;27.258;2023-05-20T11:55:54;101242.84;;;22.23;100.00
6565;BME280;3316;44.118;27.258;2023-05-20T11:58:28;101261.66;;;22.40;100.00
6565;BME280;3316;44.118;27.258;2023-05-20T12:00:54;101255.00;;;22.30;100.00
6565;BME280;3316;44.118;27.258;2023-05-20T12:03:20;101225.53;;;22.11;100.00
6565;BME280;3316;44.118;27.258;2023-05-20T12:05:46;101215.63;;;22.13;100.00
6565;BME280;3316;44.118;27.258;2023-05-20T12:08:13;101216.75;;;22.26;100.00
6565;BME280;3316;44.118;27.258;2023-05-20T12:10:38;101211.66;;;22.39;100.00
6565;BME280;3316;44.118;27.258;2023-05-20T12:13:04;101187.75;;;22.51;100.00
6565;BME280;3316;44.118;27.258;2023-05-20T12:15:36;101198.09;;;22.42;100.00
6565;BME280;3316;44.118;27.258;2023-05-20T12:18:02;101214.94;;;22.27;100.00
6565;BME280;3316;44.118;27.258;2023-05-20T12:20:28;101213.56;;;22.37;100.00
6565;BME280;3316;44.118;27.258;2023-05-20T12:22:55;101196.09;;;22.45;100.00
6565;BME280;3316;44.118;27.258;2023-05-20T12:25:22;101191.06;;;22.39;100.00
6565;BME280;3316;44.118;27.258;2023-05-20T12:27:48;101178.69;;;22.37;100.00
6565;BME280;3316;44.118;27.258;2023-05-20T12:30:15;101175.41;;;22.49;100.00
6565;BME280;3316;44.118;27.258;2023-05-20T12:32:41;101174.81;;;22.42;100.00
6565;BME280;3316;44.118;27.258;2023-05-20T12:35:08;101171.91;;;22.47;100.00
6565;BME280;3316;44.118;27.258;2023-05-20T12:37:34;101166.97;;;22.56;100.00
6565;BME280;3316;44.118;27.258;2023-05-20T12:40:00;101173.84;;;22.79;100.00
6565;BME280;3316;44.118;27.258;2023-05-20T12:42:26;101167.38;;;22.66;100.00
6565;BME280;3316;44.118;27.258;2023-05-20T12:44:51;101133.81;;;22.40;100.00
6565;BME280;3316;44.118;27.258;2023-05-20T12:47:17;101140.28;;;22.53;100.00
6565;BME280;3316;44.118;27.258;2023-05-20T12:49:43;101155.63;;;22.85;100.00
6565;BME280;3316;44.118;27.258;2023-05-20T12:52:08;101153.78;;;23.03;100.00
6565;BME280;3316;44.118;27.258;2023-05-20T12:54:34;101145.06;;;22.98;100.00
6565;BME280;3316;44.118;27.258;2023-05-20T12:56:59;101139.50;;;23.18;100.00
6565;BME280;3316;44.118;27.258;2023-05-20T12:59:25;101142.66;;;23.26;100.00